createdAt,value
2022-10-28T00:01:41.974Z,10.65
2022-10-28T00:04:12.479Z,7.28
2022-10-28T00:06:42.868Z,9.35
2022-10-28T00:09:13.435Z,9.38
2022-10-28T00:11:43.804Z,9.75
2022-10-28T00:14:15.079Z,7.75
2022-10-28T00:16:45.470Z,8.70
2022-10-28T00:19:16.189Z,7.40
2022-10-28T00:21:47.183Z,8.83
2022-10-28T00:24:17.579Z,9.00
2022-10-28T00:26:48.019Z,7.53
2022-10-28T00:29:20.256Z,8.08
2022-10-28T00:31:52.583Z,9.60
2022-10-28T00:34:23.006Z,9.18
2022-10-28T00:36:53.467Z,10.13
2022-10-28T00:39:27.496Z,7.37
2022-10-28T00:42:03.697Z,7.62
2022-10-28T00:44:53.673Z,9.70
2022-10-28T00:47:32.870Z,9.03
2022-10-28T00:50:06.239Z,10.35
2022-10-28T00:52:37.446Z,8.55
2022-10-28T00:55:08.979Z,8.68
2022-10-28T00:57:41.885Z,8.33
2022-10-28T01:00:13.584Z,9.58
2022-10-28T01:02:47.142Z,10.35
2022-10-28T01:05:23.562Z,7.55
2022-10-28T01:07:56.772Z,9.68
2022-10-28T01:10:33.454Z,8.10
2022-10-28T01:13:06.941Z,8.95
2022-10-28T01:15:46.377Z,7.58
2022-10-28T01:18:28.574Z,10.20
2022-10-28T01:21:31.797Z,10.90
2022-10-28T01:24:26.607Z,9.30
2022-10-28T01:27:03.042Z,8.00
2022-10-28T01:29:56.390Z,9.18
2022-10-28T01:32:51.505Z,8.53
2022-10-28T01:35:39.548Z,7.95
2022-10-28T01:38:18.838Z,8.10
2022-10-28T01:40:55.157Z,10.55
2022-10-28T01:43:37.061Z,10.63
2022-10-28T01:46:10.451Z,8.20
2022-10-28T01:48:46.592Z,9.80
2022-10-28T01:51:25.738Z,8.40
2022-10-28T01:53:59.043Z,9.08
2022-10-28T01:56:40.943Z,10.28
2022-10-28T01:59:14.531Z,9.93
2022-10-28T02:01:45.144Z,10.30
2022-10-28T02:04:15.991Z,10.00
2022-10-28T02:06:49.644Z,8.10
2022-10-28T02:09:32.399Z,11.00
2022-10-28T02:12:24.054Z,9.43
2022-10-28T02:15:12.883Z,9.18
2022-10-28T02:17:56.277Z,9.25
2022-10-28T02:20:30.299Z,8.40
2022-10-28T02:23:15.483Z,10.08
2022-10-28T02:26:19.494Z,8.90
2022-10-28T02:29:08.063Z,8.58
2022-10-28T02:31:41.499Z,9.83
2022-10-28T02:34:14.977Z,8.48
2022-10-28T02:36:48.273Z,9.95
2022-10-28T02:39:21.745Z,9.93
2022-10-28T02:42:06.618Z,8.68
2022-10-28T02:44:40.109Z,9.88
2022-10-28T02:47:13.478Z,8.93
2022-10-28T02:49:46.991Z,11.88
2022-10-28T02:52:20.379Z,10.60
2022-10-28T02:54:59.957Z,10.75
2022-10-28T02:57:36.016Z,9.10
2022-10-28T03:00:12.418Z,8.65
2022-10-28T03:02:43.049Z,8.85
2022-10-28T03:05:14.271Z,10.15
2022-10-28T03:07:45.121Z,8.95
2022-10-28T03:10:15.559Z,11.57
2022-10-28T03:12:45.962Z,11.68
2022-10-28T03:15:16.611Z,9.63
2022-10-28T03:17:47.077Z,9.95
2022-10-28T03:20:17.527Z,11.15
2022-10-28T03:22:48.109Z,8.78
2022-10-28T03:25:18.517Z,10.50
2022-10-28T03:27:49.102Z,9.28
2022-10-28T03:30:19.489Z,9.83
2022-10-28T03:32:49.853Z,8.50
2022-10-28T03:35:20.266Z,9.63
2022-10-28T03:37:50.608Z,9.33
2022-10-28T03:40:20.979Z,9.53
2022-10-28T03:42:51.732Z,8.13
2022-10-28T03:45:22.405Z,10.30
2022-10-28T03:47:53.498Z,10.08
2022-10-28T03:50:25.210Z,10.58
2022-10-28T03:52:55.604Z,9.15
2022-10-28T03:55:27.468Z,10.20
2022-10-28T03:57:59.455Z,9.38
2022-10-28T04:00:30.287Z,10.98
2022-10-28T04:03:00.683Z,11.55
2022-10-28T04:05:31.263Z,12.18
2022-10-28T04:08:01.647Z,10.85
2022-10-28T04:10:32.043Z,8.98
2022-10-28T04:13:05.139Z,9.13
2022-10-28T04:15:35.468Z,10.82
2022-10-28T04:18:06.216Z,10.78
2022-10-28T04:20:36.656Z,11.53
2022-10-28T04:23:07.305Z,8.38
2022-10-28T04:25:37.718Z,10.63
2022-10-28T04:28:08.040Z,10.20
2022-10-28T04:30:38.592Z,10.28
2022-10-28T04:33:10.592Z,9.88
2022-10-28T04:35:42.638Z,11.22
2022-10-28T04:38:15.563Z,10.30
2022-10-28T04:40:49.045Z,10.32
2022-10-28T04:43:19.454Z,10.45
2022-10-28T04:45:49.841Z,10.18
2022-10-28T04:48:20.255Z,10.45
2022-10-28T04:50:50.928Z,11.10
2022-10-28T04:53:21.257Z,9.78
2022-10-28T04:55:51.911Z,10.13
2022-10-28T04:58:22.434Z,10.78
2022-10-28T05:00:52.879Z,10.08
2022-10-28T05:03:23.349Z,9.63
2022-10-28T05:05:53.746Z,11.53
2022-10-28T05:08:24.201Z,9.13
2022-10-28T05:10:54.957Z,9.13
2022-10-28T05:13:25.439Z,11.85
2022-10-28T05:15:55.930Z,9.58
2022-10-28T05:18:26.491Z,10.65
2022-10-28T05:20:56.921Z,9.60
2022-10-28T05:23:30.808Z,11.85
2022-10-28T05:25:59.817Z,14.40
2022-10-28T05:28:30.190Z,12.05
2022-10-28T05:31:00.620Z,9.80
2022-10-28T05:33:31.101Z,9.90
2022-10-28T05:36:02.083Z,11.88
2022-10-28T05:38:32.448Z,10.60
2022-10-28T05:41:03.586Z,13.32
2022-10-28T05:43:33.972Z,15.48
2022-10-28T05:46:04.998Z,11.40
2022-10-28T05:48:35.374Z,11.45
2022-10-28T05:51:05.826Z,11.63
2022-10-28T05:53:36.219Z,12.33
2022-10-28T05:56:06.756Z,13.22
2022-10-28T05:58:37.140Z,12.58
2022-10-28T06:01:08.721Z,11.88
2022-10-28T06:03:39.155Z,10.45
2022-10-28T06:06:09.519Z,11.45
2022-10-28T06:08:39.919Z,12.30
2022-10-28T06:11:09.451Z,9.75
2022-10-28T06:13:39.898Z,10.88
2022-10-28T06:16:10.235Z,13.15
2022-10-28T06:18:40.622Z,12.95
2022-10-28T06:21:11.047Z,12.18
2022-10-28T06:23:41.363Z,9.80
2022-10-28T06:26:11.760Z,11.57
2022-10-28T06:28:42.072Z,12.18
2022-10-28T06:31:12.607Z,11.10
2022-10-28T06:33:43.030Z,11.33
2022-10-28T06:36:13.422Z,11.40
2022-10-28T06:38:43.754Z,13.58
2022-10-28T06:41:14.253Z,13.15
2022-10-28T06:43:44.711Z,16.42
2022-10-28T06:46:15.249Z,11.12
2022-10-28T06:48:47.254Z,9.53
2022-10-28T06:51:17.932Z,13.60
2022-10-28T06:53:54.156Z,13.58
2022-10-28T06:56:24.781Z,13.95
2022-10-28T06:58:55.783Z,16.17
2022-10-28T07:01:26.344Z,12.80
2022-10-28T07:03:56.931Z,9.10
2022-10-28T07:06:27.493Z,14.98
2022-10-28T07:08:57.869Z,12.40
2022-10-28T07:11:28.520Z,14.78
2022-10-28T07:13:59.119Z,14.00
2022-10-28T07:16:29.485Z,11.20
2022-10-28T07:18:59.910Z,12.88
2022-10-28T07:21:30.379Z,21.02
2022-10-28T07:24:01.107Z,20.88
2022-10-28T07:26:31.505Z,14.25
2022-10-28T07:29:01.985Z,15.23
2022-10-28T07:31:32.351Z,18.02
2022-10-28T07:34:03.181Z,13.60
2022-10-28T07:36:33.656Z,10.28
2022-10-28T07:39:04.179Z,12.37
2022-10-28T07:41:34.577Z,13.93
2022-10-28T07:44:05.148Z,10.95
2022-10-28T07:46:36.126Z,7.83
2022-10-28T07:49:06.674Z,12.73
2022-10-28T07:51:37.113Z,11.18
2022-10-28T07:54:07.634Z,10.50
2022-10-28T07:56:40.646Z,7.22
2022-10-28T07:59:11.039Z,10.23
2022-10-28T08:01:41.516Z,8.50
2022-10-28T08:04:12.198Z,10.20
2022-10-28T08:06:42.925Z,10.95
2022-10-28T08:09:13.871Z,8.88
2022-10-28T08:11:44.173Z,9.55
2022-10-28T08:14:14.865Z,12.70
2022-10-28T08:16:46.857Z,8.68
2022-10-28T08:19:17.334Z,9.73
2022-10-28T08:21:49.317Z,8.95
2022-10-28T08:24:19.699Z,7.47
2022-10-28T08:26:50.160Z,10.13
2022-10-28T08:29:20.768Z,7.60
2022-10-28T08:31:51.288Z,7.15
2022-10-28T08:36:52.138Z,10.72
2022-10-28T08:39:22.894Z,9.75
2022-10-28T08:42:05.020Z,6.85
2022-10-28T08:44:53.261Z,9.80
2022-10-28T08:47:41.902Z,7.62
2022-10-28T08:50:15.443Z,7.80
2022-10-28T08:53:03.753Z,9.90
2022-10-28T08:55:43.257Z,11.53
2022-10-28T08:58:19.577Z,9.50
2022-10-28T09:00:54.041Z,10.82
2022-10-28T09:03:27.370Z,14.10
2022-10-28T09:06:08.881Z,9.55
2022-10-28T09:08:42.398Z,9.68
2022-10-28T09:11:26.277Z,8.45
2022-10-28T09:13:59.738Z,7.03
2022-10-28T09:16:48.066Z,10.78
2022-10-28T09:19:27.708Z,12.70
2022-10-28T09:22:29.860Z,11.00
2022-10-28T09:25:22.816Z,8.70
2022-10-28T09:27:59.345Z,7.72
2022-10-28T09:31:02.827Z,6.22
2022-10-28T09:33:42.014Z,7.03
2022-10-28T09:36:18.320Z,11.05
2022-10-28T09:38:50.847Z,8.28
2022-10-28T09:41:27.185Z,10.55
2022-10-28T09:44:06.223Z,7.10
2022-10-28T09:46:37.448Z,7.08
2022-10-28T09:49:11.221Z,11.28
2022-10-28T09:51:56.896Z,8.98
2022-10-28T09:54:33.403Z,10.90
2022-10-28T09:57:04.956Z,7.92
2022-10-28T09:59:36.268Z,9.75
2022-10-28T10:02:06.986Z,9.38
2022-10-28T10:04:38.252Z,8.53
2022-10-28T10:07:15.057Z,7.17
2022-10-28T10:09:46.233Z,8.75
2022-10-28T10:12:17.153Z,7.50
2022-10-28T10:14:50.793Z,9.88
2022-10-28T10:17:33.368Z,8.53
2022-10-28T10:20:12.353Z,6.33
2022-10-28T10:22:44.980Z,6.37
2022-10-28T10:25:25.272Z,8.15
2022-10-28T10:28:07.411Z,8.95
2022-10-28T10:30:43.871Z,8.70
2022-10-28T10:33:29.156Z,6.65
2022-10-28T10:36:05.707Z,9.15
2022-10-28T10:38:36.969Z,8.83
2022-10-28T10:41:07.483Z,7.60
2022-10-28T10:43:39.768Z,8.40
2022-10-28T10:46:18.607Z,6.95
2022-10-28T10:48:52.124Z,10.53
2022-10-28T10:51:30.068Z,8.23
2022-10-28T10:54:00.965Z,7.35
2022-10-28T10:56:34.016Z,4.53
2022-10-28T10:59:06.784Z,7.67
2022-10-28T11:01:40.747Z,7.00
2022-10-28T11:04:23.400Z,7.62
2022-10-28T11:06:57.062Z,7.50
2022-10-28T11:09:30.632Z,6.47
2022-10-28T11:12:01.502Z,6.42
2022-10-28T11:14:33.122Z,5.35
2022-10-28T11:17:04.773Z,8.15
2022-10-28T11:19:37.350Z,5.25
2022-10-28T11:22:13.688Z,8.58
2022-10-28T11:24:59.146Z,10.48
2022-10-28T11:27:46.376Z,7.22
2022-10-28T11:30:20.258Z,7.67
2022-10-28T11:33:35.392Z,8.35
2022-10-28T11:36:15.954Z,8.53
2022-10-28T11:38:55.271Z,8.53
2022-10-28T11:41:28.883Z,8.90
2022-10-28T11:44:04.999Z,6.80
2022-10-28T11:46:48.356Z,10.20
2022-10-28T11:49:34.081Z,6.53
2022-10-28T11:52:10.475Z,6.45
2022-10-28T11:55:03.242Z,9.13
2022-10-28T11:57:53.951Z,9.10
2022-10-28T12:00:59.546Z,8.43
2022-10-28T12:03:48.150Z,7.90
2022-10-28T12:06:42.492Z,6.60
2022-10-28T12:09:18.979Z,5.80
2022-10-28T12:11:58.803Z,5.78
2022-10-28T12:14:32.197Z,10.03
2022-10-28T12:17:17.850Z,8.95
2022-10-28T12:19:57.355Z,4.37
2022-10-28T12:22:36.882Z,5.85
2022-10-28T12:25:13.137Z,8.55
2022-10-28T12:27:47.246Z,6.75
2022-10-28T12:30:23.488Z,7.00
2022-10-28T12:32:57.231Z,8.28
2022-10-28T12:35:30.887Z,8.63
2022-10-28T12:38:25.462Z,8.38
2022-10-28T12:41:10.436Z,7.20
2022-10-28T12:43:46.850Z,6.03
2022-10-28T12:46:22.892Z,4.58
2022-10-28T12:48:56.412Z,7.22
2022-10-28T12:51:32.798Z,8.30
2022-10-28T12:54:26.042Z,8.00
2022-10-28T12:56:59.519Z,7.25
2022-10-28T12:59:35.753Z,5.40
2022-10-28T13:02:09.292Z,9.30
2022-10-28T13:04:39.822Z,8.65
2022-10-28T13:07:28.099Z,7.65
2022-10-28T13:10:04.263Z,9.05
2022-10-28T13:12:50.018Z,5.85
2022-10-28T13:15:39.902Z,5.90
2022-10-28T13:18:28.663Z,9.50
2022-10-28T13:21:35.505Z,6.53
2022-10-28T13:24:17.656Z,7.15
2022-10-28T13:26:49.108Z,7.47
2022-10-28T13:29:28.818Z,7.42
2022-10-28T13:31:59.577Z,8.43
2022-10-28T13:34:36.089Z,6.53
2022-10-28T13:37:09.154Z,8.23
2022-10-28T13:39:47.279Z,11.93
2022-10-28T13:42:22.395Z,9.40
2022-10-28T13:44:58.711Z,6.47
2022-10-28T13:47:34.724Z,7.87
2022-10-28T13:50:12.523Z,8.00
2022-10-28T13:52:44.360Z,6.78
2022-10-28T13:55:26.642Z,7.75
2022-10-28T13:58:03.146Z,8.73
2022-10-28T14:00:35.921Z,4.70
2022-10-28T14:03:09.526Z,5.97
2022-10-28T14:05:43.169Z,11.48
2022-10-28T14:08:22.364Z,7.72
2022-10-28T14:11:11.254Z,7.20
2022-10-28T14:13:50.781Z,8.58
2022-10-28T14:16:32.358Z,8.35
2022-10-28T14:19:11.386Z,8.83
2022-10-28T14:21:50.780Z,9.03
2022-10-28T14:24:39.231Z,7.20
2022-10-28T14:27:12.825Z,8.60
2022-10-28T14:29:51.107Z,7.90
2022-10-28T14:32:43.050Z,8.25
2022-10-28T14:35:16.443Z,7.95
2022-10-28T14:38:08.924Z,10.08
2022-10-28T14:40:51.453Z,6.62
2022-10-28T14:43:37.074Z,7.83
2022-10-28T14:46:30.513Z,9.18
2022-10-28T14:49:03.549Z,6.95
2022-10-28T14:51:42.404Z,8.65
2022-10-28T14:54:21.919Z,8.68
2022-10-28T14:56:55.332Z,9.18
2022-10-28T14:59:28.473Z,7.25
2022-10-28T15:02:12.755Z,8.03
2022-10-28T15:04:45.798Z,6.75
2022-10-28T15:07:19.070Z,7.65
2022-10-28T15:09:54.204Z,5.95
2022-10-28T15:12:26.871Z,6.75
2022-10-28T15:14:58.244Z,8.35
2022-10-28T15:17:31.931Z,5.45
2022-10-28T15:20:04.280Z,10.30
2022-10-28T15:22:34.708Z,9.28
2022-10-28T15:25:13.874Z,8.10
2022-10-28T15:27:46.483Z,5.42
2022-10-28T15:30:23.745Z,6.78
2022-10-28T15:32:56.231Z,8.45
2022-10-28T15:35:35.808Z,7.10
2022-10-28T15:38:24.526Z,8.73
2022-10-28T15:40:55.339Z,7.25
2022-10-28T15:43:31.048Z,9.23
2022-10-28T15:46:12.220Z,7.28
2022-10-28T15:48:42.988Z,9.00
2022-10-28T15:51:15.919Z,15.60
2022-10-28T15:53:52.312Z,13.35
2022-10-28T15:56:32.639Z,8.95
2022-10-28T15:59:14.687Z,7.55
2022-10-28T16:01:45.087Z,10.38
2022-10-28T16:04:27.708Z,7.35
2022-10-28T16:07:01.189Z,8.88
2022-10-28T16:09:34.575Z,8.23
2022-10-28T16:12:13.855Z,10.15
2022-10-28T16:14:50.543Z,7.28
2022-10-28T16:17:24.269Z,10.05
2022-10-28T16:20:18.535Z,9.00
2022-10-28T16:22:48.456Z,11.43
2022-10-28T16:25:21.642Z,8.63
2022-10-28T16:27:52.495Z,6.37
2022-10-28T16:32:53.822Z,8.23
2022-10-28T16:35:26.593Z,9.40
2022-10-28T16:37:56.977Z,6.70
2022-10-28T16:43:01.152Z,11.28
2022-10-28T16:45:31.549Z,12.88
2022-10-28T16:48:02.016Z,9.00
2022-10-28T16:50:32.401Z,14.03
2022-10-28T16:53:02.822Z,9.43
2022-10-28T16:55:33.251Z,10.15
2022-10-28T16:58:03.909Z,8.98
2022-10-28T17:00:34.540Z,9.55
2022-10-28T17:03:05.617Z,10.10
2022-10-28T17:05:36.093Z,7.90
2022-10-28T17:08:09.959Z,8.18
2022-10-28T17:10:41.710Z,9.13
2022-10-28T17:13:16.204Z,9.33
2022-10-28T17:15:48.112Z,9.80
2022-10-28T17:18:19.393Z,10.68
2022-10-28T17:21:01.311Z,8.13
2022-10-28T17:23:31.770Z,7.87
2022-10-28T17:26:03.611Z,7.95
2022-10-28T17:28:34.115Z,10.15
2022-10-28T17:31:07.038Z,8.55
2022-10-28T17:33:37.432Z,12.33
2022-10-28T17:36:08.907Z,8.20
2022-10-28T17:38:39.588Z,9.55
2022-10-28T17:41:10.020Z,7.47
2022-10-28T17:43:40.386Z,9.48
2022-10-28T17:46:11.243Z,8.03
2022-10-28T17:48:41.883Z,8.38
2022-10-28T17:51:12.499Z,8.63
2022-10-28T17:53:42.873Z,9.68
2022-10-28T17:56:13.364Z,8.55
2022-10-28T17:58:43.801Z,8.48
2022-10-28T18:01:14.280Z,9.95
2022-10-28T18:03:44.801Z,9.98
2022-10-28T18:06:15.160Z,9.60
2022-10-28T18:08:45.980Z,7.83
2022-10-28T18:11:19.543Z,7.78
2022-10-28T18:13:52.732Z,8.80
2022-10-28T18:16:27.016Z,8.05
2022-10-28T18:18:59.164Z,12.05
2022-10-28T18:21:29.531Z,10.50
2022-10-28T18:24:01.757Z,9.88
2022-10-28T18:26:34.180Z,12.15
2022-10-28T18:29:06.238Z,9.45
2022-10-28T18:31:40.022Z,8.43
2022-10-28T18:34:11.121Z,10.13
2022-10-28T18:36:41.506Z,9.10
2022-10-28T18:39:11.920Z,9.53
2022-10-28T18:41:43.775Z,9.20
2022-10-28T18:44:16.965Z,8.73
2022-10-28T18:46:47.490Z,12.53
2022-10-28T18:49:18.220Z,7.97
2022-10-28T18:51:48.527Z,8.45
2022-10-28T18:54:18.844Z,8.65
2022-10-28T18:56:53.702Z,10.58
2022-10-28T18:59:22.744Z,8.60
2022-10-28T19:01:53.335Z,11.20
2022-10-28T19:04:24.019Z,12.73
2022-10-28T19:06:56.827Z,11.00
2022-10-28T19:09:27.563Z,8.80
2022-10-28T19:11:57.970Z,10.48
2022-10-28T19:14:28.374Z,7.40
2022-10-28T19:16:58.694Z,7.78
2022-10-28T19:19:29.152Z,12.65
2022-10-28T19:21:59.684Z,12.05
2022-10-28T19:24:30.007Z,9.20
2022-10-28T19:27:00.425Z,11.60
2022-10-28T19:29:31.110Z,14.87
2022-10-28T19:32:02.155Z,14.58
2022-10-28T19:34:32.683Z,30.35
2022-10-28T19:37:03.033Z,27.32
2022-10-28T19:39:33.604Z,37.90
2022-10-28T19:42:04.010Z,21.82
2022-10-28T19:44:34.430Z,18.52
2022-10-28T19:47:04.919Z,16.70
2022-10-28T19:49:39.362Z,17.10
2022-10-28T19:52:07.353Z,10.90
2022-10-28T19:54:37.713Z,17.60
2022-10-28T19:57:08.228Z,14.07
2022-10-28T19:59:38.671Z,14.25
2022-10-28T20:02:10.314Z,14.30
2022-10-28T20:04:40.894Z,11.78
2022-10-28T20:07:11.373Z,8.55
2022-10-28T20:09:41.783Z,10.13
2022-10-28T20:12:12.142Z,8.35
2022-10-28T20:14:42.587Z,10.60
2022-10-28T20:17:14.557Z,9.95
2022-10-28T20:19:44.948Z,11.53
2022-10-28T20:22:17.148Z,7.28
2022-10-28T20:24:47.529Z,10.55
2022-10-28T20:27:18.037Z,14.07
2022-10-28T20:29:48.434Z,13.25
2022-10-28T20:32:20.459Z,8.58
2022-10-28T20:34:50.775Z,15.55
2022-10-28T20:37:21.346Z,10.63
2022-10-28T20:39:54.927Z,11.43
2022-10-28T20:42:23.958Z,9.25
2022-10-28T20:44:54.359Z,8.98
2022-10-28T20:47:24.826Z,11.22
2022-10-28T20:49:55.380Z,10.65
2022-10-28T20:52:25.739Z,12.00
2022-10-28T20:54:56.372Z,11.93
2022-10-28T20:57:26.743Z,10.65
2022-10-28T20:59:57.146Z,14.43
2022-10-28T21:02:27.617Z,12.63
2022-10-28T21:04:58.267Z,10.48
2022-10-28T21:07:28.712Z,9.98
2022-10-28T21:10:00.769Z,13.18
2022-10-28T21:12:31.190Z,12.93
2022-10-28T21:15:01.647Z,12.13
2022-10-28T21:17:32.283Z,10.80
2022-10-28T21:20:02.762Z,10.03
2022-10-28T21:22:33.260Z,14.28
2022-10-28T21:25:04.331Z,9.35
2022-10-28T21:27:34.645Z,11.30
2022-10-28T21:30:05.405Z,10.38
2022-10-28T21:32:39.395Z,9.90
2022-10-28T21:35:10.509Z,13.05
2022-10-28T21:37:40.956Z,9.83
2022-10-28T21:40:12.607Z,13.48
2022-10-28T21:42:44.968Z,10.85
2022-10-28T21:45:15.498Z,11.53
2022-10-28T21:47:46.097Z,8.00
2022-10-28T21:50:17.962Z,9.50
2022-10-28T21:52:48.315Z,8.70
2022-10-28T21:55:20.925Z,11.18
2022-10-28T21:57:50.701Z,10.40
2022-10-28T22:00:21.171Z,8.30
2022-10-28T22:02:52.378Z,11.45
2022-10-28T22:05:22.834Z,12.40
2022-10-28T22:07:53.437Z,12.80
2022-10-28T22:10:24.023Z,10.45
2022-10-28T22:12:56.326Z,12.43
2022-10-28T22:15:26.772Z,12.05
2022-10-28T22:17:57.569Z,13.13
2022-10-28T22:20:28.232Z,9.98
2022-10-28T22:22:58.720Z,11.50
2022-10-28T22:25:29.297Z,11.57
2022-10-28T22:27:59.635Z,13.65
2022-10-28T22:30:30.004Z,11.35
2022-10-28T22:33:00.405Z,8.53
2022-10-28T22:35:30.726Z,9.63
2022-10-28T22:38:01.209Z,11.95
2022-10-28T22:40:31.584Z,10.50
2022-10-28T22:43:02.069Z,15.40
2022-10-28T22:45:32.385Z,11.40
2022-10-28T22:48:02.647Z,11.00
2022-10-28T22:50:33.041Z,9.83
2022-10-28T22:53:03.430Z,11.93
2022-10-28T22:55:33.848Z,10.10
2022-10-28T22:58:04.257Z,10.23
2022-10-28T23:00:34.651Z,9.68
2022-10-28T23:03:05.081Z,8.93
2022-10-28T23:05:35.744Z,10.08
2022-10-28T23:08:06.308Z,12.00
2022-10-28T23:10:36.620Z,10.25
2022-10-28T23:13:07.100Z,9.63
2022-10-28T23:15:37.466Z,8.83
2022-10-28T23:18:07.962Z,8.48
2022-10-28T23:20:38.351Z,10.95
2022-10-28T23:23:08.755Z,11.10
2022-10-28T23:25:39.122Z,7.40
2022-10-28T23:28:09.445Z,10.28
2022-10-28T23:30:39.752Z,10.78
2022-10-28T23:33:10.175Z,9.75
2022-10-28T23:35:41.731Z,11.43
2022-10-28T23:38:13.785Z,10.40
2022-10-28T23:40:44.205Z,11.97
2022-10-28T23:43:14.602Z,10.93
2022-10-28T23:45:44.985Z,14.63
2022-10-28T23:48:15.509Z,10.20
2022-10-28T23:50:46.423Z,9.33
2022-10-28T23:53:17.321Z,13.00
2022-10-28T23:55:49.563Z,8.48
2022-10-28T23:58:21.450Z,10.88
